KLM37M EHAM-LIMJ
Flight info
| Callsign | KLM37M |
|---|---|
| Flight time | N/A |
| Altitude | 37000 |
| Route | WOODY N872 NIK M624 RITAX DCT SUTAL DCT GTQ DCT DEVDI DCT ODINA DCT SRN DCT VOG |
| Aircraft | E190/M-SDE3GILORVW/S |
Departure
| Time | N/A |
|---|---|
| Airport | Amsterdam Airport Schiphol (EHAM) |
Arrival
| Time | 2026-04-23 11:51 |
|---|---|
| Airport | Genoa Cristoforo Colombo Airport (LIMJ) |
| Time | Latitude | Longitude | Altitude | Speed | Heading |
|---|---|---|---|---|---|
| 2026-04-23 11:07 | 47.06542 | 8.01521 | 37326 ft | 433 kts | 152° |
| 2026-04-23 11:07 | 47.03836 | 8.03373 | 37326 ft | 435 kts | 152° |
| 2026-04-23 11:08 | 46.98399 | 8.07084 | 37309 ft | 436 kts | 152° |
| 2026-04-23 11:08 | 46.92893 | 8.10833 | 37331 ft | 437 kts | 152° |
| 2026-04-23 11:09 | 46.87382 | 8.14581 | 37306 ft | 437 kts | 152° |
| 2026-04-23 11:09 | 46.84537 | 8.16513 | 37297 ft | 439 kts | 152° |
| 2026-04-23 11:10 | 46.79005 | 8.20252 | 37289 ft | 438 kts | 152° |
| 2026-04-23 11:10 | 46.73499 | 8.23975 | 37288 ft | 439 kts | 152° |
| 2026-04-23 11:11 | 46.67958 | 8.27715 | 37292 ft | 439 kts | 152° |
| 2026-04-23 11:11 | 46.62397 | 8.31460 | 37299 ft | 440 kts | 153° |
| 2026-04-23 11:12 | 46.56867 | 8.35162 | 37288 ft | 438 kts | 152° |
| 2026-04-23 11:12 | 46.51348 | 8.38868 | 37311 ft | 435 kts | 152° |
| 2026-04-23 11:13 | 46.45816 | 8.42567 | 37289 ft | 438 kts | 152° |
| 2026-04-23 11:13 | 46.40254 | 8.46277 | 37275 ft | 439 kts | 152° |
| 2026-04-23 11:14 | 46.34703 | 8.49970 | 37290 ft | 440 kts | 152° |
| 2026-04-23 11:14 | 46.29161 | 8.53650 | 37272 ft | 441 kts | 152° |
| 2026-04-23 11:15 | 46.23577 | 8.57348 | 37266 ft | 442 kts | 152° |
| 2026-04-23 11:15 | 46.17986 | 8.61052 | 37269 ft | 442 kts | 152° |
| 2026-04-23 11:16 | 46.12382 | 8.64734 | 37282 ft | 443 kts | 152° |
| 2026-04-23 11:16 | 46.06841 | 8.68608 | 37296 ft | 441 kts | 148° |
| 2026-04-23 11:17 | 46.01500 | 8.72995 | 37231 ft | 442 kts | 148° |
| 2026-04-23 11:17 | 45.96130 | 8.77285 | 37228 ft | 442 kts | 148° |
| 2026-04-23 11:18 | 45.90770 | 8.81520 | 37245 ft | 442 kts | 148° |
| 2026-04-23 11:18 | 45.85365 | 8.85779 | 37251 ft | 443 kts | 148° |
| 2026-04-23 11:19 | 45.79951 | 8.90027 | 37241 ft | 444 kts | 148° |
| 2026-04-23 11:19 | 45.74514 | 8.94283 | 37257 ft | 445 kts | 148° |
| 2026-04-23 11:20 | 45.69107 | 8.98508 | 37266 ft | 446 kts | 148° |
| 2026-04-23 11:20 | 45.63352 | 9.01751 | 37280 ft | 454 kts | 172° |
| 2026-04-23 11:21 | 45.57009 | 9.01549 | 37247 ft | 459 kts | 180° |
| 2026-04-23 11:21 | 45.50652 | 9.01039 | 37264 ft | 458 kts | 180° |
| 2026-04-23 11:22 | 45.44274 | 9.00570 | 37267 ft | 459 kts | 180° |
| 2026-04-23 11:22 | 45.37895 | 9.00111 | 37254 ft | 460 kts | 180° |
| 2026-04-23 11:23 | 45.31496 | 8.99654 | 37261 ft | 460 kts | 180° |
| 2026-04-23 11:23 | 45.25164 | 8.99209 | 36773 ft | 450 kts | 180° |
| 2026-04-23 11:23 | 45.22088 | 8.98995 | 36435 ft | 438 kts | 180° |
| 2026-04-23 11:24 | 45.19744 | 8.98835 | 35880 ft | 437 kts | 179° |
| 2026-04-23 11:24 | 45.16737 | 8.98633 | 35355 ft | 430 kts | 179° |
| 2026-04-23 11:24 | 45.13764 | 8.98429 | 34745 ft | 426 kts | 178° |
| 2026-04-23 11:24 | 45.10831 | 8.98225 | 34170 ft | 421 kts | 178° |
| 2026-04-23 11:25 | 45.07924 | 8.98021 | 33612 ft | 413 kts | 178° |
| 2026-04-23 11:25 | 45.05079 | 8.97816 | 33044 ft | 407 kts | 178° |
| 2026-04-23 11:25 | 45.02272 | 8.97604 | 32556 ft | 400 kts | 178° |
| 2026-04-23 11:25 | 44.99501 | 8.97397 | 31993 ft | 397 kts | 178° |
| 2026-04-23 11:26 | 44.96751 | 8.97148 | 31483 ft | 399 kts | 182° |
| 2026-04-23 11:26 | 44.93984 | 8.96484 | 30963 ft | 406 kts | 185° |
| 2026-04-23 11:26 | 44.91226 | 8.95739 | 30603 ft | 399 kts | 186° |
| 2026-04-23 11:26 | 44.88532 | 8.94993 | 30160 ft | 391 kts | 185° |
| 2026-04-23 11:27 | 44.85915 | 8.94276 | 29566 ft | 385 kts | 186° |
| 2026-04-23 11:27 | 44.83267 | 8.93549 | 28987 ft | 380 kts | 186° |
| 2026-04-23 11:27 | 44.80715 | 8.92857 | 28435 ft | 376 kts | 186° |
| 2026-04-23 11:27 | 44.78164 | 8.92161 | 27898 ft | 372 kts | 186° |
| 2026-04-23 11:28 | 44.75641 | 8.91467 | 27372 ft | 367 kts | 186° |
| 2026-04-23 11:28 | 44.73114 | 8.90778 | 26858 ft | 363 kts | 186° |
| 2026-04-23 11:28 | 44.70680 | 8.90115 | 26375 ft | 359 kts | 186° |
| 2026-04-23 11:28 | 44.68234 | 8.89457 | 25902 ft | 357 kts | 186° |
| 2026-04-23 11:29 | 44.65801 | 8.88808 | 25440 ft | 356 kts | 186° |
| 2026-04-23 11:29 | 44.63372 | 8.88161 | 24992 ft | 355 kts | 187° |
| 2026-04-23 11:29 | 44.60937 | 8.87502 | 24540 ft | 355 kts | 187° |
| 2026-04-23 11:29 | 44.58519 | 8.86847 | 24106 ft | 353 kts | 187° |
| 2026-04-23 11:30 | 44.56109 | 8.86193 | 23642 ft | 352 kts | 187° |
| 2026-04-23 11:30 | 44.53705 | 8.85548 | 23131 ft | 350 kts | 187° |
| 2026-04-23 11:30 | 44.51320 | 8.84913 | 22627 ft | 348 kts | 187° |
| 2026-04-23 11:30 | 44.48952 | 8.84277 | 22138 ft | 345 kts | 187° |
| 2026-04-23 11:31 | 44.46646 | 8.83658 | 21661 ft | 341 kts | 187° |
| 2026-04-23 11:31 | 44.44300 | 8.83029 | 21191 ft | 338 kts | 187° |
| 2026-04-23 11:31 | 44.42029 | 8.82423 | 20740 ft | 334 kts | 186° |
| 2026-04-23 11:31 | 44.39735 | 8.82045 | 20286 ft | 329 kts | 179° |
| 2026-04-23 11:32 | 44.37459 | 8.81931 | 19864 ft | 326 kts | 178° |
| 2026-04-23 11:32 | 44.35200 | 8.81835 | 19451 ft | 324 kts | 178° |
| 2026-04-23 11:32 | 44.32948 | 8.81712 | 19035 ft | 323 kts | 179° |
| 2026-04-23 11:32 | 44.30712 | 8.81568 | 18637 ft | 321 kts | 179° |
| 2026-04-23 11:33 | 44.28481 | 8.81417 | 18213 ft | 320 kts | 179° |
| 2026-04-23 11:33 | 44.26263 | 8.81263 | 17763 ft | 318 kts | 179° |
| 2026-04-23 11:33 | 44.24051 | 8.81105 | 17318 ft | 317 kts | 179° |
| 2026-04-23 11:33 | 44.21846 | 8.80949 | 16878 ft | 316 kts | 179° |
| 2026-04-23 11:34 | 44.19648 | 8.80794 | 16448 ft | 315 kts | 179° |
| 2026-04-23 11:34 | 44.17492 | 8.80640 | 16029 ft | 314 kts | 179° |
| 2026-04-23 11:34 | 44.15337 | 8.80676 | 15585 ft | 308 kts | 165° |
| 2026-04-23 11:34 | 44.13452 | 8.81898 | 15143 ft | 295 kts | 134° |
| 2026-04-23 11:35 | 44.12321 | 8.84167 | 14775 ft | 283 kts | 109° |
| 2026-04-23 11:35 | 44.11625 | 8.86715 | 14468 ft | 281 kts | 107° |
| 2026-04-23 11:35 | 44.10964 | 8.89272 | 14133 ft | 281 kts | 107° |
| 2026-04-23 11:35 | 44.10279 | 8.91825 | 13755 ft | 282 kts | 106° |
| 2026-04-23 11:36 | 44.09613 | 8.94387 | 13361 ft | 281 kts | 106° |
| 2026-04-23 11:36 | 44.08948 | 8.96946 | 12935 ft | 280 kts | 106° |
| 2026-04-23 11:36 | 44.08292 | 8.99484 | 12554 ft | 277 kts | 106° |
| 2026-04-23 11:36 | 44.07861 | 9.01152 | 12294 ft | 276 kts | 106° |
| 2026-04-23 11:37 | 44.07223 | 9.03622 | 12181 ft | 264 kts | 106° |
| 2026-04-23 11:37 | 44.06597 | 9.06022 | 11856 ft | 268 kts | 106° |
| 2026-04-23 11:37 | 44.06197 | 9.08538 | 11416 ft | 268 kts | 86° |
| 2026-04-23 11:37 | 44.06648 | 9.11006 | 11029 ft | 264 kts | 64° |
| 2026-04-23 11:38 | 44.07613 | 9.13156 | 10626 ft | 262 kts | 53° |
| 2026-04-23 11:38 | 44.08706 | 9.15184 | 10192 ft | 262 kts | 53° |
| 2026-04-23 11:38 | 44.09794 | 9.17210 | 9705 ft | 262 kts | 53° |
| 2026-04-23 11:38 | 44.10884 | 9.19246 | 9218 ft | 262 kts | 53° |
| 2026-04-23 11:39 | 44.11969 | 9.21283 | 8740 ft | 262 kts | 53° |
| 2026-04-23 11:39 | 44.13049 | 9.23326 | 8263 ft | 262 kts | 53° |
| 2026-04-23 11:39 | 44.14119 | 9.25362 | 7784 ft | 258 kts | 53° |
| 2026-04-23 11:39 | 44.15153 | 9.27343 | 7319 ft | 246 kts | 53° |
| 2026-04-23 11:40 | 44.16132 | 9.29227 | 6918 ft | 234 kts | 53° |
| 2026-04-23 11:40 | 44.17059 | 9.31030 | 6510 ft | 225 kts | 53° |
| 2026-04-23 11:40 | 44.17961 | 9.32795 | 6115 ft | 222 kts | 53° |
| 2026-04-23 11:40 | 44.18843 | 9.34466 | 5789 ft | 210 kts | 46° |
| 2026-04-23 11:41 | 44.20083 | 9.35452 | 5461 ft | 203 kts | 11° |
| 2026-04-23 11:41 | 44.21454 | 9.35532 | 5218 ft | 197 kts | 2° |
| 2026-04-23 11:41 | 44.22804 | 9.35601 | 4946 ft | 191 kts | 3° |
| 2026-04-23 11:41 | 44.24116 | 9.35678 | 4708 ft | 187 kts | 3° |
| 2026-04-23 11:42 | 44.25406 | 9.35778 | 4505 ft | 185 kts | 4° |
| 2026-04-23 11:42 | 44.26691 | 9.35874 | 4334 ft | 185 kts | 1° |
| 2026-04-23 11:42 | 44.27915 | 9.35428 | 4124 ft | 186 kts | 324° |
| 2026-04-23 11:42 | 44.28798 | 9.34110 | 3987 ft | 187 kts | 312° |
| 2026-04-23 11:43 | 44.29656 | 9.32791 | 4038 ft | 184 kts | 314° |
| 2026-04-23 11:43 | 44.30530 | 9.31442 | 3890 ft | 190 kts | 313° |
| 2026-04-23 11:43 | 44.31435 | 9.30118 | 3758 ft | 188 kts | 316° |
| 2026-04-23 11:43 | 44.32167 | 9.28628 | 3582 ft | 188 kts | 286° |
| 2026-04-23 11:44 | 44.32425 | 9.26840 | 3481 ft | 186 kts | 282° |
| 2026-04-23 11:44 | 44.32809 | 9.25145 | 3496 ft | 183 kts | 294° |
| 2026-04-23 11:44 | 44.33145 | 9.23417 | 3506 ft | 186 kts | 281° |
| 2026-04-23 11:44 | 44.33408 | 9.21639 | 3515 ft | 187 kts | 283° |
| 2026-04-23 11:45 | 44.33677 | 9.19845 | 3533 ft | 190 kts | 282° |
| 2026-04-23 11:45 | 44.33981 | 9.18063 | 3468 ft | 188 kts | 284° |
| 2026-04-23 11:45 | 44.34308 | 9.16310 | 3393 ft | 184 kts | 286° |
| 2026-04-23 11:45 | 44.34631 | 9.14620 | 3314 ft | 182 kts | 284° |
| 2026-04-23 11:46 | 44.34953 | 9.12911 | 3206 ft | 181 kts | 286° |
| 2026-04-23 11:46 | 44.35324 | 9.11241 | 3179 ft | 180 kts | 288° |
| 2026-04-23 11:46 | 44.35731 | 9.09584 | 3174 ft | 181 kts | 290° |
| 2026-04-23 11:46 | 44.36111 | 9.07899 | 3096 ft | 182 kts | 288° |
| 2026-04-23 11:47 | 44.36391 | 9.06192 | 3027 ft | 177 kts | 287° |
| 2026-04-23 11:47 | 44.36676 | 9.04583 | 2946 ft | 165 kts | 289° |
| 2026-04-23 11:47 | 44.36991 | 9.03072 | 2690 ft | 159 kts | 291° |
| 2026-04-23 11:47 | 44.37315 | 9.01653 | 2444 ft | 149 kts | 292° |
| 2026-04-23 11:48 | 44.37650 | 9.00304 | 2122 ft | 145 kts | 295° |
| 2026-04-23 11:48 | 44.38015 | 8.99008 | 1819 ft | 139 kts | 292° |
| 2026-04-23 11:48 | 44.38320 | 8.97833 | 1631 ft | 125 kts | 290° |
| 2026-04-23 11:48 | 44.38624 | 8.96676 | 1409 ft | 129 kts | 287° |
| 2026-04-23 11:49 | 44.38917 | 8.95455 | 1344 ft | 132 kts | 285° |
| 2026-04-23 11:49 | 44.39195 | 8.94251 | 1215 ft | 134 kts | 284° |
| 2026-04-23 11:49 | 44.39471 | 8.92982 | 1170 ft | 137 kts | 284° |
| 2026-04-23 11:49 | 44.39718 | 8.91731 | 1036 ft | 129 kts | 282° |
| 2026-04-23 11:50 | 44.39943 | 8.90513 | 809 ft | 130 kts | 283° |
| 2026-04-23 11:50 | 44.40191 | 8.89287 | 621 ft | 129 kts | 282° |
| 2026-04-23 11:50 | 44.40429 | 8.88097 | 411 ft | 127 kts | 283° |
| 2026-04-23 11:50 | 44.40658 | 8.86922 | 253 ft | 125 kts | 283° |
| 2026-04-23 11:51 | 44.40891 | 8.85738 | 73 ft | 126 kts | 281° |
| 2026-04-23 11:51 | 44.41102 | 8.84640 | 18 ft | 102 kts | 285° |
| 2026-04-23 11:51 | 44.41252 | 8.83893 | 18 ft | 58 kts | 285° |
| 2026-04-23 11:51 | 44.41337 | 8.83462 | 22 ft | 37 kts | 285° |
| 2026-04-23 11:52 | 44.41419 | 8.83159 | 21 ft | 30 kts | 313° |
| 2026-04-23 11:52 | 44.41529 | 8.83100 | 24 ft | 18 kts | 35° |
| 2026-04-23 11:52 | 44.41530 | 8.83259 | 24 ft | 19 kts | 108° |
| 2026-04-23 11:52 | 44.41493 | 8.83451 | 21 ft | 22 kts | 105° |
| 2026-04-23 11:53 | 44.41451 | 8.83669 | 19 ft | 25 kts | 105° |
| 2026-04-23 11:53 | 44.41403 | 8.83911 | 18 ft | 27 kts | 105° |
| 2026-04-23 11:53 | 44.41353 | 8.84166 | 16 ft | 23 kts | 105° |
| 2026-04-23 11:53 | 44.41323 | 8.84317 | 17 ft | 12 kts | 104° |
| 2026-04-23 11:54 | 44.41330 | 8.84435 | 20 ft | 14 kts | 56° |
| 2026-04-23 11:54 | 44.41387 | 8.84541 | 17 ft | 14 kts | 52° |
| 2026-04-23 11:54 | 44.41406 | 8.84670 | 17 ft | 15 kts | 106° |
| 2026-04-23 11:54 | 44.41381 | 8.84799 | 18 ft | 10 kts | 105° |
| 2026-04-23 11:55 | 44.41360 | 8.84907 | 17 ft | 13 kts | 105° |
| 2026-04-23 11:55 | 44.41346 | 8.84990 | 17 ft | 7 kts | 98° |
| 2026-04-23 11:55 | 44.41381 | 8.85019 | 17 ft | 6 kts | 14° |
| 2026-04-23 11:55 | 44.41409 | 8.85030 | 18 ft | 3 kts | 15° |
| 2026-04-23 11:56 | 44.41416 | 8.85032 | 19 ft | 0 kts | 15° |